Time;durP1;ratioP1;P1;durP2;ratioP2;P2;SDS_P1;SDS_P2;PMS_P1;PMS_P2;Temp;Humidity;BMP_temperature;BMP_pressure;BME280_temperature;BME280_humidity;BME280_pressure;Samples;Min_cycle;Max_cycle;Signal;HPM_P1;HPM_P2
2021/10/14 00:01:09;;;;;;;;;;;20.40;99.90;;;;;;5115640;28;19958;-71
2021/10/14 00:03:35;;;;;;;;;;;20.40;99.90;;;;;;5115775;28;19908;-70
2021/10/14 00:06:05;;;;;;;;;;;20.40;99.90;;;;;;5108442;28;20362;-68
2021/10/14 00:08:32;;;;;;;;;;;20.40;99.90;;;;;;5114891;28;19937;-69
2021/10/14 00:11:05;;;;;;;;;;;20.50;99.90;;;;;;5114829;28;19998;-69
2021/10/14 00:13:32;;;;;;;;;;;20.50;99.90;;;;;;5107946;28;19912;-69
2021/10/14 00:15:59;;;;;;;;;;;20.50;99.90;;;;;;5093296;28;19926;-71
2021/10/14 00:18:26;;;;;;;;;;;20.50;99.90;;;;;;5095219;28;19961;-70
2021/10/14 00:20:52;;;;;;;;;;;20.60;99.90;;;;;;5095033;28;20002;-71
2021/10/14 00:23:19;;;;;;;;;;;20.50;99.90;;;;;;5093492;28;20285;-72
2021/10/14 00:25:46;;;;;;;;;;;20.70;99.90;;;;;;5096320;28;20363;-73
2021/10/14 00:28:12;;;;;;;;;;;20.70;99.90;;;;;;5095155;28;19967;-71
2021/10/14 00:30:39;;;;;;;;;;;20.90;99.90;;;;;;5095088;28;19919;-72
2021/10/14 00:33:06;;;;;;;;;;;20.80;99.90;;;;;;5094448;28;19966;-68
2021/10/14 00:35:32;;;;;;;;;;;20.80;99.90;;;;;;5095020;28;19916;-71
2021/10/14 00:37:59;;;;;;;;;;;20.80;99.90;;;;;;5094908;28;19916;-70
2021/10/14 00:40:26;;;;;;;;;;;20.70;99.90;;;;;;5094818;28;19911;-72
2021/10/14 00:42:53;;;;;;;;;;;20.70;99.90;;;;;;5095137;28;20696;-69
2021/10/14 00:45:20;;;;;;;;;;;20.80;99.90;;;;;;5088790;28;19954;-68
2021/10/14 00:47:47;;;;;;;;;;;20.90;99.90;;;;;;5093310;28;19908;-69
2021/10/14 00:50:13;;;;;;;;;;;20.90;99.90;;;;;;5094753;28;19953;-68
2021/10/14 00:52:42;;;;;;;;;;;21.00;99.90;;;;;;5093925;28;20002;-67
2021/10/14 00:55:11;;;;;;;;;;;21.20;99.90;;;;;;5093930;28;20022;-68
2021/10/14 00:57:37;;;;;;;;;;;21.30;99.90;;;;;;5094366;28;20011;-68
2021/10/14 01:00:05;;;;;;;;;;;21.70;99.90;;;;;;5094724;28;19915;-72
2021/10/14 01:02:32;;;;;;;;;;;21.90;99.90;;;;;;5094475;28;20385;-69
2021/10/14 01:04:58;;;;;;;;;;;21.90;99.90;;;;;;5094064;28;19938;-70
2021/10/14 01:07:25;;;;;;;;;;;22.10;99.90;;;;;;5094474;28;19992;-69
2021/10/14 01:09:55;;;;;;;;;;;21.60;99.90;;;;;;5094180;28;19908;-69
2021/10/14 01:12:23;;;;;;;;;;;21.50;99.90;;;;;;5095970;28;19916;-70
2021/10/14 01:14:49;;;;;;;;;;;21.60;99.90;;;;;;5096253;28;19908;-67
2021/10/14 01:17:19;;;;;;;;;;;21.70;99.90;;;;;;5095151;28;19915;-67
2021/10/14 01:19:46;;;;;;;;;;;21.70;99.90;;;;;;5094675;28;19971;-72
2021/10/14 01:22:13;;;;;;;;;;;22.00;99.90;;;;;;5099191;28;19938;-70
2021/10/14 01:24:39;;;;;;;;;;;22.10;99.90;;;;;;5095240;28;19908;-68
2021/10/14 01:27:07;;;;;;;;;;;22.00;99.90;;;;;;5093260;28;20504;-68
2021/10/14 01:29:34;;;;;;;;;;;22.30;99.90;;;;;;5093909;28;19908;-68
2021/10/14 01:32:01;;;;;;;;;;;22.20;99.90;;;;;;5096447;28;19961;-71
2021/10/14 01:34:28;;;;;;;;;;;21.90;99.90;;;;;;5094706;28;19908;-70
2021/10/14 01:36:54;;;;;;;;;;;21.80;99.90;;;;;;5093840;28;20286;-69
2021/10/14 01:39:21;;;;;;;;;;;21.90;99.90;;;;;;5094634;28;19908;-69
2021/10/14 01:41:49;;;;;;;;;;;21.90;99.90;;;;;;5094213;28;19995;-69
2021/10/14 01:44:16;;;;;;;;;;;21.80;99.90;;;;;;5095068;28;19908;-68
2021/10/14 01:46:42;;;;;;;;;;;21.70;99.90;;;;;;5095832;28;19912;-68
2021/10/14 01:49:09;;;;;;;;;;;21.60;99.90;;;;;;5113494;28;19938;-68
2021/10/14 01:51:36;;;;;;;;;;;21.70;99.90;;;;;;5114923;28;20325;-68
2021/10/14 01:54:03;;;;;;;;;;;21.70;99.90;;;;;;5096202;28;19991;-68
2021/10/14 01:56:29;;;;;;;;;;;21.70;99.90;;;;;;5113349;28;19926;-71
2021/10/14 01:58:56;;;;;;;;;;;21.70;99.90;;;;;;5113074;28;19907;-69
2021/10/14 02:01:23;;;;;;;;;;;21.60;99.90;;;;;;5113320;28;19911;-68
2021/10/14 02:03:51;;;;;;;;;;;21.50;99.90;;;;;;5113038;28;19912;-69
2021/10/14 02:06:18;;;;;;;;;;;21.50;99.90;;;;;;5106854;28;19908;-68
2021/10/14 02:08:44;;;;;;;;;;;21.50;99.90;;;;;;5094283;28;19953;-71
2021/10/14 02:11:11;;;;;;;;;;;21.60;99.90;;;;;;5091745;28;19916;-69
2021/10/14 02:13:38;;;;;;;;;;;21.50;99.90;;;;;;5092567;28;19908;-69
2021/10/14 02:16:04;;;;;;;;;;;21.70;99.90;;;;;;5092612;28;19916;-69
2021/10/14 02:18:31;;;;;;;;;;;21.90;99.90;;;;;;5092667;28;20085;-71
2021/10/14 02:20:58;;;;;;;;;;;21.90;99.90;;;;;;5090516;28;19988;-68
2021/10/14 02:23:24;;;;;;;;;;;21.80;99.90;;;;;;5087748;28;20366;-70
2021/10/14 02:25:51;;;;;;;;;;;21.80;99.90;;;;;;5092577;28;20465;-68
2021/10/14 02:28:18;;;;;;;;;;;21.90;99.90;;;;;;5092475;28;19912;-69
2021/10/14 02:30:44;;;;;;;;;;;21.80;99.90;;;;;;5092443;28;20322;-68
2021/10/14 02:33:11;;;;;;;;;;;21.80;99.90;;;;;;5092300;28;19912;-68
2021/10/14 02:35:38;;;;;;;;;;;21.70;99.90;;;;;;5091175;28;19919;-68
2021/10/14 02:38:05;;;;;;;;;;;21.80;99.90;;;;;;5092576;28;20321;-68
2021/10/14 02:40:32;;;;;;;;;;;21.80;99.90;;;;;;5092454;28;20298;-70
2021/10/14 02:42:58;;;;;;;;;;;21.90;99.90;;;;;;5091748;28;19912;-68
2021/10/14 02:45:25;;;;;;;;;;;22.00;99.90;;;;;;5092035;28;19916;-69
2021/10/14 02:47:52;;;;;;;;;;;22.00;99.90;;;;;;5090628;28;19958;-69
2021/10/14 02:50:19;;;;;;;;;;;22.00;99.90;;;;;;5092149;28;19912;-68
2021/10/14 02:52:45;;;;;;;;;;;22.00;99.90;;;;;;5092479;28;19908;-69
2021/10/14 02:55:12;;;;;;;;;;;22.00;99.90;;;;;;5091142;28;19928;-68
2021/10/14 02:57:42;;;;;;;;;;;21.90;99.90;;;;;;5090967;28;20338;-68
2021/10/14 03:00:09;;;;;;;;;;;21.90;99.90;;;;;;5092080;28;19912;-68
2021/10/14 03:02:35;;;;;;;;;;;21.90;99.90;;;;;;5092764;28;19951;-68
2021/10/14 03:05:02;;;;;;;;;;;22.00;99.90;;;;;;5092997;28;19963;-67
2021/10/14 03:07:29;;;;;;;;;;;21.90;99.90;;;;;;5092557;28;19912;-68
2021/10/14 03:09:58;;;;;;;;;;;21.90;99.90;;;;;;5091693;28;19916;-68
2021/10/14 03:12:25;;;;;;;;;;;21.80;99.90;;;;;;5092638;28;19931;-69
2021/10/14 03:14:51;;;;;;;;;;;21.80;99.90;;;;;;5092658;28;20285;-68
2021/10/14 03:17:18;;;;;;;;;;;21.70;99.90;;;;;;5076453;28;19931;-69
2021/10/14 03:19:45;;;;;;;;;;;21.70;99.90;;;;;;5072667;28;20374;-69
2021/10/14 03:22:12;;;;;;;;;;;21.80;99.90;;;;;;5068159;28;19908;-68
2021/10/14 03:24:38;;;;;;;;;;;21.70;99.90;;;;;;5072289;28;20355;-69
2021/10/14 03:27:05;;;;;;;;;;;21.50;99.90;;;;;;5070864;28;19908;-71
2021/10/14 03:29:32;;;;;;;;;;;21.30;99.90;;;;;;5071619;28;19912;-69
2021/10/14 03:31:58;;;;;;;;;;;21.30;99.90;;;;;;5072131;28;19913;-72
2021/10/14 03:34:25;;;;;;;;;;;21.20;99.90;;;;;;5072866;28;20319;-69
2021/10/14 03:36:52;;;;;;;;;;;21.10;99.90;;;;;;5072370;28;19916;-72
2021/10/14 03:39:18;;;;;;;;;;;21.20;99.90;;;;;;5072373;28;20313;-68
2021/10/14 03:41:45;;;;;;;;;;;20.90;99.90;;;;;;5073817;28;19908;-69
2021/10/14 03:44:13;;;;;;;;;;;20.90;99.90;;;;;;5072743;28;19998;-71
2021/10/14 03:46:43;;;;;;;;;;;21.00;99.90;;;;;;5071432;28;20359;-71
2021/10/14 03:49:10;;;;;;;;;;;21.00;99.90;;;;;;5071370;28;19916;-68
2021/10/14 03:51:37;;;;;;;;;;;20.80;99.90;;;;;;5071581;28;19908;-69
2021/10/14 03:54:04;;;;;;;;;;;20.70;99.90;;;;;;5053692;28;19946;-70
2021/10/14 03:56:31;;;;;;;;;;;20.60;99.90;;;;;;5090509;28;19920;-69
2021/10/14 03:58:57;;;;;;;;;;;20.70;99.90;;;;;;5093362;28;19912;-70
2021/10/14 04:01:24;;;;;;;;;;;20.60;99.90;;;;;;5095617;28;20414;-71
2021/10/14 04:03:50;;;;;;;;;;;20.60;99.90;;;;;;5095423;28;19955;-72
2021/10/14 04:06:18;;;;;;;;;;;20.50;99.90;;;;;;5096197;28;19912;-71
2021/10/14 04:08:45;;;;;;;;;;;20.40;99.90;;;;;;5095733;28;20512;-72
2021/10/14 04:11:12;;;;;;;;;;;20.30;99.90;;;;;;5095894;28;19977;-71
2021/10/14 04:13:38;;;;;;;;;;;20.30;99.90;;;;;;5095359;28;19920;-69
2021/10/14 04:16:05;;;;;;;;;;;20.10;99.90;;;;;;5095970;28;19917;-71
2021/10/14 04:18:32;;;;;;;;;;;19.90;99.90;;;;;;5096590;28;19995;-71
2021/10/14 04:20:58;;;;;;;;;;;19.80;99.90;;;;;;5095953;28;19908;-72
2021/10/14 04:23:25;;;;;;;;;;;19.70;99.90;;;;;;5094906;28;19957;-70
2021/10/14 04:25:52;;;;;;;;;;;19.70;99.90;;;;;;5099619;28;20377;-68
2021/10/14 04:28:18;;;;;;;;;;;19.60;99.90;;;;;;5115942;27;19920;-70
2021/10/14 04:30:46;;;;;;;;;;;19.60;99.90;;;;;;5115386;28;19999;-68
2021/10/14 04:33:13;;;;;;;;;;;19.50;99.90;;;;;;5115802;28;19911;-70
2021/10/14 04:35:39;;;;;;;;;;;19.40;99.90;;;;;;5115876;28;19968;-70
2021/10/14 04:38:06;;;;;;;;;;;19.30;99.90;;;;;;5106967;28;19912;-72
2021/10/14 04:40:33;;;;;;;;;;;19.30;99.90;;;;;;5094401;28;19940;-71
2021/10/14 04:43:00;;;;;;;;;;;19.10;99.90;;;;;;5097255;28;19918;-74
2021/10/14 04:45:26;;;;;;;;;;;19.10;99.90;;;;;;5094988;28;20264;-74
2021/10/14 04:47:53;;;;;;;;;;;19.10;99.90;;;;;;5093700;28;20293;-72
2021/10/14 04:50:19;;;;;;;;;;;19.10;99.90;;;;;;5094655;28;19947;-71
2021/10/14 04:52:46;;;;;;;;;;;19.10;99.90;;;;;;5095619;28;19908;-72
2021/10/14 04:55:13;;;;;;;;;;;19.10;99.90;;;;;;5094883;28;19977;-73
2021/10/14 04:57:39;;;;;;;;;;;18.90;99.90;;;;;;5094945;28;19922;-72
2021/10/14 05:00:07;;;;;;;;;;;18.90;99.90;;;;;;5092829;28;20450;-73
2021/10/14 05:02:34;;;;;;;;;;;18.80;99.90;;;;;;5095001;28;19908;-72
2021/10/14 05:05:01;;;;;;;;;;;18.80;99.90;;;;;;5093632;28;20378;-73
2021/10/14 05:07:30;;;;;;;;;;;18.80;99.90;;;;;;5095410;28;20302;-71
2021/10/14 05:09:57;;;;;;;;;;;18.70;99.90;;;;;;5095331;28;19908;-73
2021/10/14 05:12:24;;;;;;;;;;;18.70;99.90;;;;;;5093559;28;19908;-74
2021/10/14 05:14:50;;;;;;;;;;;18.70;99.90;;;;;;5095269;28;19915;-73
2021/10/14 05:17:26;;;;;;;;;;;18.70;99.90;;;;;;5097111;28;19930;-73
2021/10/14 05:19:53;;;;;;;;;;;18.60;99.90;;;;;;5098244;28;19908;-75
2021/10/14 05:22:20;;;;;;;;;;;18.60;99.90;;;;;;5094845;28;19908;-72
2021/10/14 05:24:47;;;;;;;;;;;18.60;99.90;;;;;;5094877;28;19912;-72
2021/10/14 05:27:14;;;;;;;;;;;18.60;99.90;;;;;;5093453;28;19916;-72
2021/10/14 05:29:40;;;;;;;;;;;18.60;99.90;;;;;;5114558;28;19907;-72
2021/10/14 05:32:07;;;;;;;;;;;18.60;99.90;;;;;;5114435;28;19908;-73
2021/10/14 05:34:34;;;;;;;;;;;18.60;99.90;;;;;;5114942;28;19908;-72
2021/10/14 05:37:00;;;;;;;;;;;18.60;99.90;;;;;;5113448;28;19920;-73
2021/10/14 05:39:27;;;;;;;;;;;18.60;99.90;;;;;;5114097;28;19908;-72
2021/10/14 05:41:54;;;;;;;;;;;18.60;99.90;;;;;;5113874;28;19914;-72
2021/10/14 05:44:20;;;;;;;;;;;18.70;99.90;;;;;;5114987;28;19961;-74
2021/10/14 05:46:48;;;;;;;;;;;18.70;99.90;;;;;;5115400;28;19908;-73
2021/10/14 05:49:15;;;;;;;;;;;18.60;99.90;;;;;;5114365;28;19915;-74
2021/10/14 05:51:41;;;;;;;;;;;18.50;99.90;;;;;;5112349;28;19915;-74
2021/10/14 05:54:08;;;;;;;;;;;18.50;99.90;;;;;;5114797;28;19933;-74
2021/10/14 05:56:35;;;;;;;;;;;18.50;99.90;;;;;;5111494;28;20481;-75
2021/10/14 05:59:02;;;;;;;;;;;18.50;99.90;;;;;;5111482;28;19998;-76
2021/10/14 06:01:28;;;;;;;;;;;18.50;99.90;;;;;;5112099;28;19939;-76
2021/10/14 06:03:55;;;;;;;;;;;18.60;99.90;;;;;;5111962;28;19912;-74
2021/10/14 06:06:25;;;;;;;;;;;18.60;99.90;;;;;;5112226;28;19919;-73
2021/10/14 06:08:51;;;;;;;;;;;18.60;99.90;;;;;;5111395;28;19912;-75
2021/10/14 06:11:18;;;;;;;;;;;18.80;99.90;;;;;;5111231;28;19908;-75
2021/10/14 06:13:44;;;;;;;;;;;18.80;99.90;;;;;;5111673;28;19997;-74
2021/10/14 06:16:11;;;;;;;;;;;18.80;99.90;;;;;;5112033;27;19916;-73
2021/10/14 06:18:39;;;;;;;;;;;18.70;99.90;;;;;;5111667;28;19912;-74
2021/10/14 06:21:06;;;;;;;;;;;18.60;99.90;;;;;;5111306;28;20405;-75
2021/10/14 06:23:33;;;;;;;;;;;18.70;99.90;;;;;;5111690;28;20007;-75
2021/10/14 06:26:00;;;;;;;;;;;18.70;99.90;;;;;;5111726;28;20414;-73
2021/10/14 06:28:26;;;;;;;;;;;18.90;99.90;;;;;;5111515;28;19943;-74
2021/10/14 06:30:53;;;;;;;;;;;18.90;99.90;;;;;;5111282;28;19908;-73
2021/10/14 06:33:20;;;;;;;;;;;19.00;99.90;;;;;;5112448;28;20290;-75
2021/10/14 06:35:47;;;;;;;;;;;19.00;99.90;;;;;;5112213;28;20287;-73
2021/10/14 06:38:13;;;;;;;;;;;19.10;99.90;;;;;;5111207;28;19907;-73
2021/10/14 06:40:40;;;;;;;;;;;19.10;99.90;;;;;;5110888;28;20282;-74
2021/10/14 06:43:07;;;;;;;;;;;19.00;99.90;;;;;;5110954;28;19919;-73
2021/10/14 06:45:34;;;;;;;;;;;18.90;99.90;;;;;;5111013;28;20226;-73
2021/10/14 06:48:01;;;;;;;;;;;19.00;99.90;;;;;;5111148;28;19919;-74
2021/10/14 06:50:27;;;;;;;;;;;18.90;99.90;;;;;;5111782;28;20045;-73
2021/10/14 06:52:54;;;;;;;;;;;18.90;99.90;;;;;;5111558;28;19912;-73
2021/10/14 06:55:21;;;;;;;;;;;18.90;99.90;;;;;;5121427;28;19919;-74
2021/10/14 06:57:47;;;;;;;;;;;18.80;99.90;;;;;;5114715;28;19937;-74
2021/10/14 07:00:19;;;;;;;;;;;18.80;99.90;;;;;;5110806;28;19908;-76
2021/10/14 07:02:46;;;;;;;;;;;18.70;99.90;;;;;;5111385;28;19911;-73
2021/10/14 07:05:15;;;;;;;;;;;18.60;99.90;;;;;;5110979;28;19977;-74
2021/10/14 07:07:42;;;;;;;;;;;18.60;99.90;;;;;;5111388;28;19907;-74
2021/10/14 07:10:09;;;;;;;;;;;18.50;99.90;;;;;;5110135;28;20661;-73
2021/10/14 07:12:38;;;;;;;;;;;18.50;99.90;;;;;;5111214;28;19998;-74
2021/10/14 07:15:06;;;;;;;;;;;18.50;99.90;;;;;;5111323;28;19911;-73
2021/10/14 07:17:36;;;;;;;;;;;18.60;99.90;;;;;;5110937;28;20366;-72
2021/10/14 07:20:04;;;;;;;;;;;18.60;99.90;;;;;;5110664;28;19912;-73
2021/10/14 07:22:31;;;;;;;;;;;18.50;99.90;;;;;;5085408;28;19912;-71
2021/10/14 07:24:59;;;;;;;;;;;18.50;99.90;;;;;;5070048;28;19962;-72
2021/10/14 07:27:26;;;;;;;;;;;18.50;99.90;;;;;;5070561;28;19957;-75
2021/10/14 07:29:53;;;;;;;;;;;18.50;99.90;;;;;;5100176;28;20232;-72
2021/10/14 07:32:19;;;;;;;;;;;18.50;99.90;;;;;;5087072;28;19973;-74
2021/10/14 07:34:46;;;;;;;;;;;18.50;99.90;;;;;;5093262;28;19908;-73
2021/10/14 07:37:18;;;;;;;;;;;18.40;99.90;;;;;;5093883;28;20397;-73
2021/10/14 07:39:46;;;;;;;;;;;18.40;99.90;;;;;;5087830;28;19909;-73
2021/10/14 07:42:13;;;;;;;;;;;18.40;99.90;;;;;;5093371;28;19935;-72
2021/10/14 07:44:40;;;;;;;;;;;18.30;99.90;;;;;;5091781;28;20363;-71
2021/10/14 07:47:07;;;;;;;;;;;18.20;99.90;;;;;;5093759;28;19920;-73
2021/10/14 07:49:33;;;;;;;;;;;18.30;99.90;;;;;;5093221;28;19944;-72
2021/10/14 07:52:00;;;;;;;;;;;18.20;99.90;;;;;;5093541;28;19939;-72
2021/10/14 07:54:27;;;;;;;;;;;18.30;99.90;;;;;;5093310;28;19912;-71
2021/10/14 07:56:53;;;;;;;;;;;18.30;99.90;;;;;;5093429;28;19920;-73
2021/10/14 07:59:20;;;;;;;;;;;18.30;99.90;;;;;;5093259;28;19912;-73
2021/10/14 08:01:47;;;;;;;;;;;18.30;99.90;;;;;;5092843;28;19916;-72
2021/10/14 08:04:13;;;;;;;;;;;18.30;99.90;;;;;;5090023;28;19916;-72
2021/10/14 08:06:40;;;;;;;;;;;18.40;99.90;;;;;;5095278;28;19952;-72
2021/10/14 08:09:07;;;;;;;;;;;18.40;99.90;;;;;;5095259;28;19912;-73
2021/10/14 08:11:33;;;;;;;;;;;18.50;99.90;;;;;;5095164;28;19915;-72
2021/10/14 08:14:00;;;;;;;;;;;18.50;99.90;;;;;;5094742;28;19996;-72
2021/10/14 08:16:27;;;;;;;;;;;18.50;99.90;;;;;;5093655;28;20003;-72
2021/10/14 08:18:53;;;;;;;;;;;18.50;99.90;;;;;;5093567;28;20813;-72
2021/10/14 08:21:20;;;;;;;;;;;18.50;99.90;;;;;;5095096;28;19912;-72
2021/10/14 08:23:47;;;;;;;;;;;18.50;99.90;;;;;;5094496;28;19916;-73
2021/10/14 08:26:14;;;;;;;;;;;18.50;99.90;;;;;;5095026;28;20351;-73
2021/10/14 08:28:41;;;;;;;;;;;18.50;99.90;;;;;;5093439;28;19943;-74
2021/10/14 08:31:07;;;;;;;;;;;18.50;99.90;;;;;;5096047;28;19908;-72
2021/10/14 08:33:34;;;;;;;;;;;18.40;99.90;;;;;;5098474;28;19978;-74
2021/10/14 08:36:01;;;;;;;;;;;18.40;99.90;;;;;;5096013;28;20278;-74
2021/10/14 08:38:27;;;;;;;;;;;18.40;99.90;;;;;;5094944;28;19909;-74
2021/10/14 08:40:54;;;;;;;;;;;18.40;99.90;;;;;;5094873;28;19911;-72
2021/10/14 08:43:21;;;;;;;;;;;18.40;99.90;;;;;;5094811;28;19909;-72
2021/10/14 08:45:48;;;;;;;;;;;18.40;99.90;;;;;;5094360;28;19909;-74
2021/10/14 08:48:15;;;;;;;;;;;18.40;99.90;;;;;;5094865;28;20658;-73
2021/10/14 08:50:43;;;;;;;;;;;18.40;99.90;;;;;;5094446;28;19953;-74
2021/10/14 08:53:12;;;;;;;;;;;18.40;99.90;;;;;;5094773;28;19926;-73
2021/10/14 08:55:39;;;;;;;;;;;18.40;99.90;;;;;;5094235;28;19924;-73
2021/10/14 08:58:07;;;;;;;;;;;18.40;99.90;;;;;;5094419;28;20382;-73
2021/10/14 09:00:35;;;;;;;;;;;18.40;99.90;;;;;;5094310;28;19961;-74
2021/10/14 09:03:21;;;;;;;;;;;18.40;99.90;;;;;;5094708;28;19955;-72
2021/10/14 09:05:48;;;;;;;;;;;18.40;99.90;;;;;;5083864;28;20298;-73
2021/10/14 09:08:15;;;;;;;;;;;18.40;99.90;;;;;;5074516;28;19958;-74
2021/10/14 09:10:41;;;;;;;;;;;18.40;99.90;;;;;;5083473;28;20389;-73
2021/10/14 09:13:16;;;;;;;;;;;18.40;99.90;;;;;;5093658;28;19998;-73
2021/10/14 09:15:43;;;;;;;;;;;18.40;99.90;;;;;;5093199;28;20271;-72
2021/10/14 09:18:25;;;;;;;;;;;18.30;99.90;;;;;;5090108;28;19916;-73
2021/10/14 09:20:53;;;;;;;;;;;18.30;99.90;;;;;;5093000;28;20044;-72
2021/10/14 09:23:27;;;;;;;;;;;18.30;99.90;;;;;;5092702;28;19989;-71
2021/10/14 09:25:54;;;;;;;;;;;18.20;99.90;;;;;;5094581;28;19912;-71
2021/10/14 09:28:22;;;;;;;;;;;18.30;99.90;;;;;;5090847;28;19951;-72
2021/10/14 09:30:50;;;;;;;;;;;18.30;99.90;;;;;;5111837;28;20010;-74
2021/10/14 09:33:30;;;;;;;;;;;18.30;99.90;;;;;;5098407;28;19957;-71
2021/10/14 09:35:57;;;;;;;;;;;18.20;99.90;;;;;;5093568;28;20022;-73
2021/10/14 09:38:33;;;;;;;;;;;18.20;99.90;;;;;;5094826;28;20294;-74
2021/10/14 09:41:01;;;;;;;;;;;18.20;99.90;;;;;;5094905;28;20012;-73
2021/10/14 09:43:29;;;;;;;;;;;18.20;99.90;;;;;;5091214;28;19919;-74
2021/10/14 09:45:56;;;;;;;;;;;18.20;99.90;;;;;;5092163;28;20369;-74
2021/10/14 09:48:22;;;;;;;;;;;18.20;99.90;;;;;;5091108;28;19908;-74
2021/10/14 09:50:50;;;;;;;;;;;18.20;99.90;;;;;;5091648;28;20030;-75
2021/10/14 09:53:18;;;;;;;;;;;18.10;99.90;;;;;;5092611;28;19909;-74
2021/10/14 09:55:45;;;;;;;;;;;18.20;99.90;;;;;;5091697;28;19933;-74
2021/10/14 09:58:12;;;;;;;;;;;18.20;99.90;;;;;;5090846;28;19912;-73
2021/10/14 10:00:40;;;;;;;;;;;18.20;99.90;;;;;;5092776;28;19916;-74
2021/10/14 10:03:08;;;;;;;;;;;18.20;99.90;;;;;;5092864;28;19997;-73
2021/10/14 10:05:35;;;;;;;;;;;18.10;99.90;;;;;;5091757;28;19967;-72
2021/10/14 10:08:04;;;;;;;;;;;18.10;99.90;;;;;;5091399;28;19912;-73
2021/10/14 10:10:31;;;;;;;;;;;18.10;99.90;;;;;;5094110;28;19909;-74
2021/10/14 10:13:00;;;;;;;;;;;18.10;99.90;;;;;;5092479;28;19908;-72
2021/10/14 10:15:40;;;;;;;;;;;18.10;99.90;;;;;;5090148;28;19919;-74
2021/10/14 10:18:24;;;;;;;;;;;18.10;99.90;;;;;;5091888;28;19912;-72
2021/10/14 10:20:51;;;;;;;;;;;18.10;99.90;;;;;;5092176;28;20054;-74
2021/10/14 10:23:36;;;;;;;;;;;18.00;99.90;;;;;;5092626;28;19912;-75
2021/10/14 10:26:03;;;;;;;;;;;18.00;99.90;;;;;;5091767;28;19912;-74
2021/10/14 10:28:41;;;;;;;;;;;18.10;99.90;;;;;;5072774;28;19912;-74
2021/10/14 10:31:08;;;;;;;;;;;18.10;99.90;;;;;;5088054;28;19916;-75
2021/10/14 10:34:02;;;;;;;;;;;18.10;99.90;;;;;;5091212;28;19953;-73
2021/10/14 10:36:47;;;;;;;;;;;18.00;99.90;;;;;;5091996;28;19926;-73
2021/10/14 10:39:32;;;;;;;;;;;18.00;99.90;;;;;;5091409;28;20325;-74
2021/10/14 10:42:34;;;;;;;;;;;18.10;99.90;;;;;;5090925;28;19912;-73
2021/10/14 10:45:12;;;;;;;;;;;18.00;99.90;;;;;;5089699;28;19908;-73
2021/10/14 10:47:49;;;;;;;;;;;18.00;99.90;;;;;;5091213;28;19923;-72
2021/10/14 10:50:22;;;;;;;;;;;18.00;99.90;;;;;;5091578;28;19912;-72
2021/10/14 10:53:09;;;;;;;;;;;18.00;99.90;;;;;;5081916;28;20414;-75
2021/10/14 10:55:37;;;;;;;;;;;17.90;99.90;;;;;;5081205;28;19927;-72
2021/10/14 10:58:07;;;;;;;;;;;18.00;99.90;;;;;;5090373;28;20341;-71
2021/10/14 11:00:34;;;;;;;;;;;18.00;99.90;;;;;;5091212;28;19912;-74
2021/10/14 11:03:06;;;;;;;;;;;18.00;99.90;;;;;;5091546;28;19926;-73
2021/10/14 11:05:55;;;;;;;;;;;17.90;99.90;;;;;;5091298;28;20365;-73
2021/10/14 11:08:22;;;;;;;;;;;17.90;99.90;;;;;;5090608;28;20011;-72
2021/10/14 11:10:51;;;;;;;;;;;17.90;99.90;;;;;;5090890;28;19923;-72
2021/10/14 11:13:18;;;;;;;;;;;17.90;99.90;;;;;;5091056;28;20278;-74
2021/10/14 11:15:48;;;;;;;;;;;17.90;99.90;;;;;;5090934;28;20474;-72
2021/10/14 11:18:15;;;;;;;;;;;17.90;99.90;;;;;;5091705;28;20015;-74
2021/10/14 11:21:03;;;;;;;;;;;17.90;99.90;;;;;;5091019;28;19916;-72
2021/10/14 11:23:30;;;;;;;;;;;17.80;99.90;;;;;;5090980;28;19912;-72
2021/10/14 11:26:16;;;;;;;;;;;17.80;99.90;;;;;;5091124;28;19944;-73
2021/10/14 11:28:58;;;;;;;;;;;17.90;99.90;;;;;;5090794;28;20445;-72
2021/10/14 11:31:28;;;;;;;;;;;17.80;99.90;;;;;;5090680;28;19912;-74
2021/10/14 11:33:56;;;;;;;;;;;17.80;99.90;;;;;;5090455;28;19912;-75
2021/10/14 11:36:23;;;;;;;;;;;17.70;99.90;;;;;;5091701;28;20010;-75
2021/10/14 11:38:57;;;;;;;;;;;17.70;99.90;;;;;;5091263;28;19912;-72
2021/10/14 11:41:24;;;;;;;;;;;17.70;99.90;;;;;;5091400;28;19908;-76
2021/10/14 11:43:54;;;;;;;;;;;17.70;99.90;;;;;;5091888;28;19912;-75
2021/10/14 11:46:28;;;;;;;;;;;17.70;99.90;;;;;;5094054;28;20412;-74
2021/10/14 11:48:56;;;;;;;;;;;17.70;99.90;;;;;;5092287;28;20628;-76
2021/10/14 11:51:24;;;;;;;;;;;17.60;99.90;;;;;;5091421;28;19965;-75
2021/10/14 11:53:58;;;;;;;;;;;17.60;99.90;;;;;;5090938;28;19908;-74
2021/10/14 11:56:25;;;;;;;;;;;17.60;99.90;;;;;;5090231;28;19919;-73
2021/10/14 11:58:51;;;;;;;;;;;17.50;99.90;;;;;;5089719;28;19909;-75
2021/10/14 12:01:20;;;;;;;;;;;17.50;99.90;;;;;;5090098;28;19978;-76
2021/10/14 12:03:47;;;;;;;;;;;17.50;99.90;;;;;;5090050;28;19999;-76
2021/10/14 12:06:16;;;;;;;;;;;17.50;99.90;;;;;;5090031;28;19912;-74
2021/10/14 12:08:43;;;;;;;;;;;17.50;99.90;;;;;;5090037;28;19908;-75
2021/10/14 12:11:17;;;;;;;;;;;17.50;99.90;;;;;;5089984;28;20390;-74
2021/10/14 12:13:43;;;;;;;;;;;17.50;99.90;;;;;;5089472;28;19912;-74
2021/10/14 12:16:11;;;;;;;;;;;17.50;99.90;;;;;;5089942;28;19916;-75
2021/10/14 12:18:38;;;;;;;;;;;17.60;99.90;;;;;;5090282;28;19912;-74
2021/10/14 12:21:31;;;;;;;;;;;17.60;99.90;;;;;;5093529;28;20409;-73
2021/10/14 12:24:04;;;;;;;;;;;17.60;99.90;;;;;;5091390;28;19908;-76
2021/10/14 12:26:35;;;;;;;;;;;17.60;99.90;;;;;;5093297;28;19908;-75
2021/10/14 12:29:20;;;;;;;;;;;17.60;99.90;;;;;;5093393;28;20007;-73
2021/10/14 12:31:46;;;;;;;;;;;17.60;99.90;;;;;;5093151;28;20352;-75
2021/10/14 12:34:14;;;;;;;;;;;17.60;99.90;;;;;;5093245;28;19908;-72
2021/10/14 12:36:47;;;;;;;;;;;17.60;99.90;;;;;;5093028;28;20534;-74
2021/10/14 12:39:21;;;;;;;;;;;17.60;99.90;;;;;;5092781;28;19916;-74
2021/10/14 12:41:52;;;;;;;;;;;17.60;99.90;;;;;;5092924;28;20363;-75
2021/10/14 12:44:19;;;;;;;;;;;17.60;99.90;;;;;;5093037;28;19908;-74
2021/10/14 12:46:58;;;;;;;;;;;17.60;99.90;;;;;;5093057;28;20388;-73
2021/10/14 12:51:52;;;;;;;;;;;17.60;99.90;;;;;;5092538;28;19909;-73
2021/10/14 12:54:20;;;;;;;;;;;17.60;99.90;;;;;;5092749;28;19970;-72
2021/10/14 12:56:47;;;;;;;;;;;17.60;99.90;;;;;;5091418;28;20387;-70
2021/10/14 12:59:16;;;;;;;;;;;17.60;99.90;;;;;;5092401;28;20478;-73
2021/10/14 13:01:47;;;;;;;;;;;17.60;99.90;;;;;;5092621;28;19909;-73
2021/10/14 13:04:14;;;;;;;;;;;17.60;99.90;;;;;;5092408;28;19978;-73
2021/10/14 13:06:41;;;;;;;;;;;17.60;99.90;;;;;;5091452;28;19999;-73
2021/10/14 13:09:08;;;;;;;;;;;17.60;99.90;;;;;;5092606;28;19912;-72
2021/10/14 13:11:35;;;;;;;;;;;17.60;99.90;;;;;;5092277;28;19938;-75
2021/10/14 13:14:03;;;;;;;;;;;17.60;99.90;;;;;;5092232;28;19908;-73
2021/10/14 13:16:30;;;;;;;;;;;17.60;99.90;;;;;;5092235;28;20022;-73
2021/10/14 13:18:58;;;;;;;;;;;17.60;99.90;;;;;;5090745;28;19918;-74
2021/10/14 13:21:25;;;;;;;;;;;17.60;99.90;;;;;;5092468;28;19915;-73
2021/10/14 13:23:52;;;;;;;;;;;17.60;99.90;;;;;;5097971;28;20388;-72
2021/10/14 13:26:22;;;;;;;;;;;17.50;99.90;;;;;;5095382;28;19967;-74
2021/10/14 13:28:48;;;;;;;;;;;17.50;99.90;;;;;;5092492;28;19915;-74
2021/10/14 13:31:16;;;;;;;;;;;17.50;99.90;;;;;;5091957;28;19923;-73
2021/10/14 13:33:43;;;;;;;;;;;17.50;99.90;;;;;;5092106;28;20371;-75
2021/10/14 13:36:13;;;;;;;;;;;17.40;99.90;;;;;;5091795;28;19924;-76
2021/10/14 13:38:46;;;;;;;;;;;17.40;99.90;;;;;;5091964;28;20298;-75
2021/10/14 13:41:15;;;;;;;;;;;17.40;99.90;;;;;;5091987;28;19959;-74
2021/10/14 13:43:46;;;;;;;;;;;17.30;99.90;;;;;;5092161;28;19951;-73
2021/10/14 13:46:13;;;;;;;;;;;17.30;99.90;;;;;;5092597;28;19931;-75
2021/10/14 13:48:39;;;;;;;;;;;17.30;99.90;;;;;;5093998;28;19980;-75
2021/10/14 13:51:06;;;;;;;;;;;17.20;99.90;;;;;;5093829;28;20011;-76
2021/10/14 13:53:33;;;;;;;;;;;17.20;99.90;;;;;;5093471;28;20003;-75
2021/10/14 13:56:00;;;;;;;;;;;17.10;99.90;;;;;;5092231;28;20396;-75
2021/10/14 13:58:26;;;;;;;;;;;17.10;99.90;;;;;;5094158;28;19908;-74
2021/10/14 14:00:53;;;;;;;;;;;17.10;99.90;;;;;;5093796;28;19907;-75
2021/10/14 14:03:20;;;;;;;;;;;17.10;99.90;;;;;;5093633;28;19908;-74
2021/10/14 14:05:47;;;;;;;;;;;17.10;99.90;;;;;;5093246;28;19908;-75
2021/10/14 14:08:17;;;;;;;;;;;17.00;99.90;;;;;;5093383;28;19908;-74
2021/10/14 14:10:44;;;;;;;;;;;17.10;99.90;;;;;;5093378;28;20277;-74
2021/10/14 14:13:12;;;;;;;;;;;17.00;99.90;;;;;;5093238;28;19908;-75
2021/10/14 14:15:41;;;;;;;;;;;17.10;99.90;;;;;;5093337;28;19912;-75
2021/10/14 14:18:08;;;;;;;;;;;17.10;99.90;;;;;;5093318;28;19916;-74
2021/10/14 14:20:36;;;;;;;;;;;17.10;99.90;;;;;;5093417;28;19914;-75
2021/10/14 14:23:06;;;;;;;;;;;17.00;99.90;;;;;;5093118;28;20373;-76
2021/10/14 14:25:32;;;;;;;;;;;16.90;99.90;;;;;;5093050;28;19908;-74